Time;durP1;ratioP1;P1;durP2;ratioP2;P2;SDS_P1;SDS_P2;PMS_P1;PMS_P2;Temp;Humidity;BMP_temperature;BMP_pressure;BME280_temperature;BME280_humidity;BME280_pressure;Samples;Min_cycle;Max_cycle;Signal;HPM_P1;HPM_P2
2021/10/07 00:02:04;;;;;;;1.02;0.93;;;12.70;99.90;;;;;;5055740;28;20214;-74
2021/10/07 00:04:32;;;;;;;3.22;1.10;;;12.80;99.90;;;;;;5056557;28;20294;-73
2021/10/07 00:06:59;;;;;;;1.20;1.10;;;12.80;99.90;;;;;;5056079;28;20257;-73
2021/10/07 00:09:26;;;;;;;1.00;0.95;;;12.80;99.90;;;;;;5055551;28;20208;-74
2021/10/07 00:11:53;;;;;;;3.47;1.27;;;12.80;99.90;;;;;;5054639;28;20200;-70
2021/10/07 00:14:20;;;;;;;1.20;1.00;;;12.70;99.90;;;;;;5052832;28;20203;-69
2021/10/07 00:16:47;;;;;;;1.45;1.20;;;12.60;99.90;;;;;;5052249;28;20338;-70
2021/10/07 00:19:15;;;;;;;3.70;1.13;;;12.60;99.90;;;;;;5052815;28;20223;-69
2021/10/07 00:21:42;;;;;;;1.55;1.45;;;12.60;99.90;;;;;;5052655;28;20236;-70
2021/10/07 00:24:09;;;;;;;8.82;1.27;;;12.60;99.90;;;;;;5052409;28;20658;-69
2021/10/07 00:26:38;;;;;;;2.00;1.20;;;12.60;99.90;;;;;;5052017;28;20227;-69
2021/10/07 00:29:18;;;;;;;1.23;1.10;;;12.70;99.90;;;;;;5052585;28;20231;-70
2021/10/07 00:31:48;;;;;;;1.30;1.20;;;12.80;99.90;;;;;;5054290;28;20210;-71
2021/10/07 00:34:22;;;;;;;1.50;1.40;;;12.70;99.90;;;;;;5055293;28;20695;-70
2021/10/07 00:37:06;;;;;;;2.45;1.20;;;12.70;99.90;;;;;;5054758;28;20317;-71
2021/10/07 00:39:32;;;;;;;1.58;1.40;;;12.70;99.90;;;;;;5059112;28;20281;-69
2021/10/07 00:41:59;;;;;;;1.40;1.30;;;12.70;99.90;;;;;;5058203;28;20258;-69
2021/10/07 00:44:31;;;;;;;1.80;1.70;;;12.80;99.90;;;;;;5057957;28;20202;-69
2021/10/07 00:47:01;;;;;;;1.33;1.20;;;12.90;99.90;;;;;;5058237;28;20223;-70
2021/10/07 00:49:32;;;;;;;1.25;1.15;;;12.90;99.90;;;;;;5057973;28;20573;-69
2021/10/07 00:52:00;;;;;;;2.10;1.35;;;12.90;99.90;;;;;;5058259;28;20203;-69
2021/10/07 00:54:28;;;;;;;1.30;1.20;;;12.80;99.90;;;;;;5058541;28;20294;-70
2021/10/07 00:56:56;;;;;;;1.50;1.25;;;12.80;99.90;;;;;;5058656;28;20234;-69
2021/10/07 00:59:23;;;;;;;1.30;1.00;;;12.80;99.90;;;;;;5058744;28;20203;-69
2021/10/07 01:01:50;;;;;;;2.70;1.30;;;12.70;99.90;;;;;;5058410;28;20572;-69
2021/10/07 01:04:17;;;;;;;2.17;1.40;;;12.60;99.90;;;;;;5058862;28;20206;-69
2021/10/07 01:06:46;;;;;;;1.92;1.23;;;12.70;99.90;;;;;;5058930;28;20585;-70
2021/10/07 01:09:13;;;;;;;1.55;1.45;;;12.50;99.90;;;;;;5058107;28;20255;-69
2021/10/07 01:11:40;;;;;;;1.50;1.30;;;12.60;99.90;;;;;;5058072;28;20669;-69
2021/10/07 01:14:07;;;;;;;1.48;1.38;;;12.50;99.90;;;;;;5057731;28;20204;-69
2021/10/07 01:16:35;;;;;;;1.70;1.60;;;12.60;99.90;;;;;;5058140;28;20219;-69
2021/10/07 01:19:02;;;;;;;1.30;1.20;;;12.50;99.90;;;;;;5058645;28;20568;-70
2021/10/07 01:21:30;;;;;;;2.42;1.40;;;12.50;99.90;;;;;;5058424;28;20757;-69
2021/10/07 01:23:57;;;;;;;1.80;1.42;;;12.50;99.90;;;;;;5058073;28;20206;-69
2021/10/07 01:26:26;;;;;;;2.15;1.48;;;12.50;99.90;;;;;;5057686;28;20231;-69
2021/10/07 01:28:53;;;;;;;1.70;1.60;;;12.50;99.90;;;;;;5058410;28;20573;-69
2021/10/07 01:31:20;;;;;;;1.48;1.38;;;12.40;99.90;;;;;;5058193;28;20267;-69
2021/10/07 01:33:47;;;;;;;2.00;1.45;;;12.50;99.90;;;;;;5058252;28;20203;-70
2021/10/07 01:36:14;;;;;;;1.88;1.17;;;12.50;99.90;;;;;;5057525;28;20224;-69
2021/10/07 01:38:42;;;;;;;1.50;1.40;;;12.60;99.90;;;;;;5056985;28;20199;-69
2021/10/07 01:41:09;;;;;;;1.20;1.10;;;12.60;99.90;;;;;;5056737;28;20203;-69
2021/10/07 01:43:36;;;;;;;1.60;1.50;;;12.70;99.90;;;;;;5056533;28;20298;-69
2021/10/07 01:46:03;;;;;;;1.40;1.30;;;12.80;99.90;;;;;;5056262;28;20220;-69
2021/10/07 01:48:31;;;;;;;2.22;1.52;;;12.80;99.90;;;;;;5056339;28;20693;-69
2021/10/07 01:50:58;;;;;;;1.67;1.30;;;12.90;99.90;;;;;;5057171;28;20200;-69
2021/10/07 01:53:25;;;;;;;2.67;1.60;;;12.90;99.90;;;;;;5057531;28;20756;-70
2021/10/07 01:55:54;;;;;;;2.65;1.40;;;12.90;99.90;;;;;;5057405;28;20223;-70
2021/10/07 01:58:21;;;;;;;1.42;1.20;;;12.90;99.90;;;;;;5057141;28;20286;-69
2021/10/07 02:00:48;;;;;;;1.95;1.30;;;12.90;99.90;;;;;;5056230;28;20547;-69
2021/10/07 02:03:15;;;;;;;2.17;1.35;;;12.90;99.90;;;;;;5055943;28;20294;-69
2021/10/07 02:05:41;;;;;;;1.60;1.45;;;12.90;99.90;;;;;;5056489;28;20290;-69
2021/10/07 02:08:08;;;;;;;1.45;1.23;;;12.90;99.90;;;;;;5056767;28;20227;-69
2021/10/07 02:10:35;;;;;;;1.67;1.02;;;12.80;99.90;;;;;;5056805;28;20539;-69
2021/10/07 02:13:03;;;;;;;1.30;1.20;;;12.60;99.90;;;;;;5057200;28;20203;-69
2021/10/07 02:15:30;;;;;;;1.10;1.10;;;12.50;99.90;;;;;;5056246;28;20297;-69
2021/10/07 02:17:57;;;;;;;1.23;1.13;;;12.50;99.90;;;;;;5057724;28;20203;-69
2021/10/07 02:20:24;;;;;;;2.15;1.35;;;12.40;99.90;;;;;;5057719;28;20204;-69
2021/10/07 02:22:50;;;;;;;1.25;1.13;;;12.40;99.90;;;;;;5056008;28;20210;-69
2021/10/07 02:25:17;;;;;;;3.35;1.27;;;12.40;99.90;;;;;;5056260;28;20219;-69
2021/10/07 02:27:44;;;;;;;1.63;1.42;;;12.30;99.90;;;;;;5056745;28;20720;-69
2021/10/07 02:30:15;;;;;;;2.17;1.27;;;12.40;99.90;;;;;;5057331;28;20211;-70
2021/10/07 02:32:42;;;;;;;1.60;1.20;;;12.40;99.90;;;;;;5057308;28;20733;-69
2021/10/07 02:35:09;;;;;;;1.38;1.27;;;12.40;99.90;;;;;;5056538;28;20200;-69
2021/10/07 02:37:36;;;;;;;1.50;1.40;;;12.50;99.90;;;;;;5057283;28;20226;-69
2021/10/07 02:40:05;;;;;;;1.10;1.10;;;12.60;99.90;;;;;;5057358;28;20208;-70
2021/10/07 02:42:32;;;;;;;1.48;1.30;;;12.60;99.90;;;;;;5056560;28;20285;-69
2021/10/07 02:44:59;;;;;;;1.13;1.10;;;12.60;99.90;;;;;;5057588;28;20290;-69
2021/10/07 02:47:27;;;;;;;1.30;1.30;;;12.60;99.90;;;;;;5056636;28;20223;-69
2021/10/07 02:49:54;;;;;;;2.15;1.60;;;12.60;99.90;;;;;;5057029;28;20206;-69
2021/10/07 02:52:21;;;;;;;1.67;1.45;;;12.50;99.90;;;;;;5057126;28;20583;-69
2021/10/07 02:54:48;;;;;;;2.28;1.20;;;12.50;99.90;;;;;;5057511;28;20205;-69
2021/10/07 02:57:14;;;;;;;1.50;1.40;;;12.40;99.90;;;;;;5057329;28;20252;-69
2021/10/07 02:59:42;;;;;;;2.20;1.30;;;12.40;99.90;;;;;;5055437;28;20200;-69
2021/10/07 03:02:10;;;;;;;2.55;1.50;;;12.30;99.90;;;;;;5056307;28;20211;-69
2021/10/07 03:04:38;;;;;;;1.40;1.30;;;12.40;99.90;;;;;;5057325;28;20230;-69
2021/10/07 03:07:05;;;;;;;1.65;1.40;;;12.30;99.90;;;;;;5056533;28;20219;-69
2021/10/07 03:09:32;;;;;;;1.13;1.13;;;12.30;99.90;;;;;;5055439;28;20235;-69
2021/10/07 03:11:59;;;;;;;1.58;1.40;;;12.40;99.90;;;;;;5055490;28;20199;-69
2021/10/07 03:14:26;;;;;;;1.60;1.50;;;12.50;99.90;;;;;;5055949;28;20204;-69
2021/10/07 03:16:52;;;;;;;1.40;1.30;;;12.50;99.90;;;;;;5055505;28;20231;-69
2021/10/07 03:19:19;;;;;;;1.50;1.40;;;12.50;99.90;;;;;;5056490;28;20291;-69
2021/10/07 03:21:47;;;;;;;1.20;1.20;;;12.40;99.90;;;;;;5055980;28;20199;-69
2021/10/07 03:24:14;;;;;;;1.90;1.45;;;12.40;99.90;;;;;;5055030;28;20204;-69
2021/10/07 03:26:41;;;;;;;1.75;1.20;;;12.50;99.90;;;;;;5056109;28;20229;-69
2021/10/07 03:29:08;;;;;;;1.60;1.42;;;12.50;99.90;;;;;;5055147;28;20701;-69
2021/10/07 03:31:35;;;;;;;1.35;1.25;;;12.50;99.90;;;;;;5055193;28;20575;-69
2021/10/07 03:34:02;;;;;;;1.65;1.10;;;12.50;99.90;;;;;;5055665;28;20211;-69
2021/10/07 03:36:29;;;;;;;1.58;1.33;;;12.60;99.90;;;;;;5055518;28;20592;-69
2021/10/07 03:38:57;;;;;;;1.63;1.50;;;12.50;99.90;;;;;;5055156;28;20225;-69
2021/10/07 03:41:24;;;;;;;1.13;1.13;;;12.40;99.90;;;;;;5055066;28;20239;-69
2021/10/07 03:43:51;;;;;;;1.30;1.20;;;12.30;99.90;;;;;;5055894;28;20565;-69
2021/10/07 03:46:17;;;;;;;1.30;1.20;;;12.20;99.90;;;;;;5054706;28;20323;-69
2021/10/07 03:48:44;;;;;;;1.67;1.52;;;12.20;99.90;;;;;;5055399;28;20220;-69
2021/10/07 03:51:11;;;;;;;1.30;1.17;;;12.20;99.90;;;;;;5055883;28;20294;-69
2021/10/07 03:53:38;;;;;;;1.30;1.20;;;12.30;99.90;;;;;;5054686;28;20203;-69
2021/10/07 03:56:06;;;;;;;1.88;1.50;;;12.20;99.90;;;;;;5055786;28;20666;-69
2021/10/07 03:58:33;;;;;;;1.40;1.30;;;12.30;99.90;;;;;;5055100;28;20200;-69
2021/10/07 04:01:00;;;;;;;1.60;1.50;;;12.30;99.90;;;;;;5055184;28;20298;-69
2021/10/07 04:03:27;;;;;;;3.10;1.70;;;12.40;99.90;;;;;;5055427;28;20218;-69
2021/10/07 04:05:55;;;;;;;1.48;1.05;;;12.40;99.90;;;;;;5054734;28;20592;-69
2021/10/07 04:08:22;;;;;;;1.67;1.42;;;12.40;99.90;;;;;;5055380;28;20227;-69
2021/10/07 04:10:50;;;;;;;1.30;1.20;;;12.40;99.90;;;;;;5055080;28;20294;-69
2021/10/07 04:13:18;;;;;;;1.10;1.00;;;12.40;99.90;;;;;;5055143;28;20238;-69
2021/10/07 04:15:46;;;;;;;1.20;1.00;;;12.40;99.90;;;;;;5055536;28;20683;-69
2021/10/07 04:18:13;;;;;;;1.50;1.40;;;12.40;99.90;;;;;;5055716;28;20743;-69
2021/10/07 04:20:40;;;;;;;2.40;1.50;;;12.40;99.90;;;;;;5055706;28;20741;-69
2021/10/07 04:23:07;;;;;;;1.85;1.33;;;12.30;99.90;;;;;;5055265;28;20234;-69
2021/10/07 04:25:34;;;;;;;1.65;1.50;;;12.40;99.90;;;;;;5055815;28;20215;-69
2021/10/07 04:28:02;;;;;;;1.55;1.45;;;12.40;99.90;;;;;;5056167;28;20209;-69
2021/10/07 04:30:31;;;;;;;1.58;1.35;;;12.40;99.90;;;;;;5056117;28;20600;-69
2021/10/07 04:32:58;;;;;;;1.35;1.25;;;12.30;99.90;;;;;;5055632;28;20295;-68
2021/10/07 04:35:24;;;;;;;1.80;1.50;;;12.30;99.90;;;;;;5056020;28;20654;-70
2021/10/07 04:37:51;;;;;;;2.83;1.40;;;12.20;99.90;;;;;;5056047;28;20219;-69
2021/10/07 04:40:18;;;;;;;1.27;1.17;;;12.20;99.90;;;;;;5055644;28;20199;-69
2021/10/07 04:42:45;;;;;;;1.65;1.30;;;12.20;99.90;;;;;;5054945;28;20207;-69
2021/10/07 04:45:11;;;;;;;1.27;1.17;;;12.20;99.90;;;;;;5055678;28;20569;-69
2021/10/07 04:47:40;;;;;;;1.77;1.10;;;12.20;99.90;;;;;;5055619;28;20230;-69
2021/10/07 04:50:08;;;;;;;1.30;1.25;;;12.20;99.90;;;;;;5055694;28;20223;-69
2021/10/07 04:52:35;;;;;;;1.48;1.17;;;12.30;99.90;;;;;;5055218;28;20298;-69
2021/10/07 04:55:02;;;;;;;1.30;1.20;;;12.40;99.90;;;;;;5054895;28;20290;-69
2021/10/07 04:57:30;;;;;;;1.50;1.40;;;12.50;99.90;;;;;;5055500;28;20219;-69
2021/10/07 04:59:56;;;;;;;1.20;1.10;;;12.40;99.90;;;;;;5055033;28;20215;-69
2021/10/07 05:02:23;;;;;;;1.38;1.27;;;12.40;99.90;;;;;;5055076;28;20200;-70
2021/10/07 05:04:51;;;;;;;1.67;1.20;;;12.30;99.90;;;;;;5055272;28;20653;-70
2021/10/07 05:07:19;;;;;;;1.35;1.20;;;12.20;99.90;;;;;;5055417;28;20229;-70
2021/10/07 05:09:45;;;;;;;1.48;1.38;;;12.10;99.90;;;;;;5055412;28;20314;-69
2021/10/07 05:12:12;;;;;;;1.20;1.10;;;12.10;99.90;;;;;;5054580;28;20561;-69
2021/10/07 05:14:39;;;;;;;1.92;1.50;;;12.10;99.90;;;;;;5054712;28;20209;-69
2021/10/07 05:17:06;;;;;;;1.48;1.38;;;12.20;99.90;;;;;;5054472;28;20314;-69
2021/10/07 05:19:33;;;;;;;1.65;1.55;;;12.30;99.90;;;;;;5054196;28;20203;-70
2021/10/07 05:22:01;;;;;;;2.38;1.85;;;12.40;99.90;;;;;;5054065;28;20238;-69
2021/10/07 05:24:29;;;;;;;1.60;1.50;;;12.40;99.90;;;;;;5056422;28;20294;-70
2021/10/07 05:26:56;;;;;;;3.47;1.80;;;12.50;99.90;;;;;;5057395;28;20254;-69
2021/10/07 05:29:23;;;;;;;2.20;1.63;;;12.60;99.90;;;;;;5057413;28;20314;-70
2021/10/07 05:31:50;;;;;;;1.98;1.77;;;12.60;99.90;;;;;;5057007;28;20214;-69
2021/10/07 05:34:19;;;;;;;1.70;1.52;;;12.70;99.90;;;;;;5056945;28;20207;-69
2021/10/07 05:36:46;;;;;;;2.55;2.35;;;12.70;99.90;;;;;;5057030;28;20654;-69
2021/10/07 05:39:14;;;;;;;1.42;1.20;;;12.80;99.90;;;;;;5057170;28;20241;-69
2021/10/07 05:41:41;;;;;;;1.80;1.55;;;12.80;99.90;;;;;;5056573;28;20199;-69
2021/10/07 05:44:10;;;;;;;1.50;1.33;;;12.80;99.90;;;;;;5056503;28;20207;-69
2021/10/07 05:46:37;;;;;;;1.77;1.55;;;12.80;99.90;;;;;;5056783;28;20227;-69
2021/10/07 05:49:04;;;;;;;1.13;1.00;;;12.70;99.90;;;;;;5057117;28;20229;-69
2021/10/07 05:51:31;;;;;;;1.50;1.40;;;12.70;99.90;;;;;;5056638;28;20207;-69
2021/10/07 05:53:58;;;;;;;1.42;1.25;;;12.70;99.90;;;;;;5056774;28;20200;-69
2021/10/07 05:56:26;;;;;;;1.55;1.45;;;12.60;99.90;;;;;;5057015;28;20309;-69
2021/10/07 05:58:53;;;;;;;1.42;1.30;;;12.60;99.90;;;;;;5057130;28;20715;-69
2021/10/07 06:01:20;;;;;;;1.55;1.45;;;12.50;99.90;;;;;;5056953;28;20569;-69
2021/10/07 06:03:47;;;;;;;5.47;1.92;;;12.60;99.90;;;;;;5056769;28;20233;-69
2021/10/07 06:06:14;;;;;;;1.58;1.45;;;12.60;99.90;;;;;;5056492;28;20226;-70
2021/10/07 06:08:41;;;;;;;2.38;1.80;;;12.70;99.90;;;;;;5056415;28;20569;-70
2021/10/07 06:11:08;;;;;;;3.00;1.35;;;12.70;99.90;;;;;;5056757;28;20308;-69
2021/10/07 06:13:36;;;;;;;1.90;1.70;;;12.70;99.90;;;;;;5056926;28;20294;-70
2021/10/07 06:16:03;;;;;;;3.08;1.65;;;12.70;99.90;;;;;;5057177;28;20318;-69
2021/10/07 06:18:29;;;;;;;1.50;1.40;;;12.60;99.90;;;;;;5057015;28;20229;-69
2021/10/07 06:20:56;;;;;;;1.65;1.55;;;12.60;99.90;;;;;;5057150;28;20221;-69
2021/10/07 06:23:23;;;;;;;1.00;1.00;;;12.50;99.90;;;;;;5057006;28;20203;-69
2021/10/07 06:25:50;;;;;;;1.60;1.50;;;12.50;99.90;;;;;;5056268;28;20696;-69
2021/10/07 06:28:17;;;;;;;1.55;1.45;;;12.50;99.90;;;;;;5056843;28;20246;-69
2021/10/07 06:30:45;;;;;;;1.67;1.58;;;12.50;99.90;;;;;;5056966;28;20232;-69
2021/10/07 06:33:12;;;;;;;1.45;1.35;;;12.50;99.90;;;;;;5056713;28;20203;-69
2021/10/07 06:35:39;;;;;;;1.35;1.10;;;12.50;99.90;;;;;;5056605;28;20207;-69
2021/10/07 06:38:07;;;;;;;4.35;1.45;;;12.60;99.90;;;;;;5056397;28;20276;-69
2021/10/07 06:40:33;;;;;;;2.60;1.77;;;12.60;99.90;;;;;;5056157;28;20662;-69
2021/10/07 06:43:00;;;;;;;1.67;1.40;;;12.70;99.90;;;;;;5055909;28;20299;-69
2021/10/07 06:45:29;;;;;;;1.70;1.60;;;12.70;99.90;;;;;;5056299;28;20298;-69
2021/10/07 06:47:57;;;;;;;2.13;1.60;;;12.70;99.90;;;;;;5055489;28;20558;-69
2021/10/07 06:50:24;;;;;;;1.98;1.75;;;12.70;99.90;;;;;;5057277;28;20227;-69
2021/10/07 06:52:51;;;;;;;3.20;1.50;;;12.70;99.90;;;;;;5056556;28;20291;-69
2021/10/07 06:55:18;;;;;;;1.80;1.70;;;12.60;99.90;;;;;;5056882;28;20203;-69
2021/10/07 06:57:45;;;;;;;3.38;1.90;;;12.50;99.90;;;;;;5056321;28;20517;-69
2021/10/07 07:00:12;;;;;;;3.17;1.95;;;12.60;99.90;;;;;;5056146;28;20699;-69
2021/10/07 07:02:39;;;;;;;2.38;2.08;;;12.60;99.90;;;;;;5055733;28;20214;-69
2021/10/07 07:05:09;;;;;;;1.85;1.73;;;12.60;99.90;;;;;;5055982;28;20200;-69
2021/10/07 07:07:37;;;;;;;3.20;2.13;;;12.60;99.90;;;;;;5056380;28;20223;-69
2021/10/07 07:10:05;;;;;;;3.35;2.28;;;12.70;99.90;;;;;;5056118;28;20314;-69
2021/10/07 07:12:32;;;;;;;2.97;2.47;;;12.60;99.90;;;;;;5054731;28;20238;-70
2021/10/07 07:14:59;;;;;;;4.13;3.30;;;12.70;99.90;;;;;;5054652;28;20206;-73
2021/10/07 07:17:26;;;;;;;3.33;3.03;;;12.80;99.90;;;;;;5053870;28;20660;-72
2021/10/07 07:19:52;;;;;;;4.50;3.50;;;12.70;99.90;;;;;;5054345;28;20752;-72
2021/10/07 07:22:20;;;;;;;4.55;3.45;;;12.70;99.90;;;;;;5053681;28;20203;-71
2021/10/07 07:24:47;;;;;;;4.65;3.70;;;12.70;99.90;;;;;;5053933;28;20215;-72
2021/10/07 07:27:16;;;;;;;3.88;3.42;;;12.80;99.90;;;;;;5054345;28;20223;-69
2021/10/07 07:29:43;;;;;;;7.50;3.90;;;12.70;99.90;;;;;;5055615;28;20590;-69
2021/10/07 07:32:10;;;;;;;7.55;4.30;;;12.70;99.90;;;;;;5054830;28;20212;-68
2021/10/07 07:34:38;;;;;;;6.68;4.20;;;12.60;99.90;;;;;;5054829;28;20232;-69
2021/10/07 07:37:05;;;;;;;4.90;4.40;;;12.40;99.90;;;;;;5055747;28;20223;-69
2021/10/07 07:39:34;;;;;;;7.45;4.88;;;12.40;99.90;;;;;;5055548;28;20198;-69
2021/10/07 07:42:01;;;;;;;5.53;4.43;;;12.50;99.90;;;;;;5054952;28;20203;-69
2021/10/07 07:44:28;;;;;;;6.55;4.25;;;12.70;99.90;;;;;;5055343;28;20203;-69
2021/10/07 07:46:55;;;;;;;9.43;4.22;;;12.80;99.90;;;;;;5054559;28;20230;-69
2021/10/07 07:49:22;;;;;;;6.22;4.50;;;12.90;99.90;;;;;;5054808;28;20226;-69
2021/10/07 07:51:49;;;;;;;5.50;4.30;;;12.80;99.90;;;;;;5054817;28;20205;-69
2021/10/07 07:54:16;;;;;;;7.20;5.20;;;12.90;99.90;;;;;;5054239;28;20298;-69
2021/10/07 07:56:44;;;;;;;7.88;5.47;;;13.00;99.90;;;;;;5054486;28;20230;-69
2021/10/07 07:59:11;;;;;;;7.68;4.90;;;13.00;99.90;;;;;;5054838;28;20209;-69
2021/10/07 08:01:38;;;;;;;6.05;4.00;;;12.90;99.90;;;;;;5054128;28;20298;-69
2021/10/07 08:04:06;;;;;;;6.60;5.10;;;13.10;99.90;;;;;;5054032;28;20210;-69
2021/10/07 08:06:33;;;;;;;7.63;5.22;;;13.10;99.90;;;;;;5054864;28;20232;-69
2021/10/07 08:09:00;;;;;;;8.82;6.18;;;13.00;99.90;;;;;;5054683;28;20226;-69
2021/10/07 08:11:27;;;;;;;8.20;5.57;;;13.00;99.90;;;;;;5053704;28;20223;-69
2021/10/07 08:13:58;;;;;;;7.00;5.30;;;13.10;99.90;;;;;;5054933;28;20626;-70
2021/10/07 08:16:25;;;;;;;6.90;5.10;;;13.10;99.90;;;;;;5054748;28;20229;-69
2021/10/07 08:18:52;;;;;;;8.73;5.90;;;13.20;99.90;;;;;;5054688;28;20203;-69
2021/10/07 08:21:19;;;;;;;6.30;5.43;;;13.20;99.90;;;;;;5054104;28;20602;-69
2021/10/07 08:23:47;;;;;;;7.22;5.35;;;13.30;99.90;;;;;;5054551;28;20203;-70
2021/10/07 08:26:14;;;;;;;11.02;6.75;;;13.20;99.90;;;;;;5054754;28;20239;-69
2021/10/07 08:28:41;;;;;;;11.25;6.70;;;13.00;99.90;;;;;;5055109;28;20199;-69
2021/10/07 08:31:09;;;;;;;7.78;6.32;;;12.90;99.90;;;;;;5054668;28;20223;-69
2021/10/07 08:33:36;;;;;;;8.43;6.18;;;12.80;99.90;;;;;;5055012;28;20289;-69
2021/10/07 08:36:03;;;;;;;8.35;6.35;;;12.90;99.90;;;;;;5054734;28;20254;-69
2021/10/07 08:38:32;;;;;;;11.65;6.57;;;13.00;99.90;;;;;;5054836;28;20270;-69
2021/10/07 08:40:59;;;;;;;9.88;6.10;;;13.00;99.90;;;;;;5054654;28;20210;-68
2021/10/07 08:43:26;;;;;;;8.73;5.70;;;13.00;99.90;;;;;;5054120;28;20207;-69
2021/10/07 08:45:53;;;;;;;9.65;7.05;;;13.20;99.90;;;;;;5054306;28;20243;-69
2021/10/07 08:48:22;;;;;;;9.27;6.30;;;13.30;99.90;;;;;;5053937;28;20298;-69
2021/10/07 08:50:49;;;;;;;9.65;7.15;;;13.50;99.90;;;;;;5053691;28;20219;-69
2021/10/07 08:53:15;;;;;;;8.95;7.05;;;13.60;99.90;;;;;;5053471;28;20203;-69
2021/10/07 08:55:42;;;;;;;9.57;6.53;;;13.90;99.90;;;;;;5053661;28;20294;-69
2021/10/07 08:58:11;;;;;;;10.27;6.80;;;14.10;99.90;;;;;;5053921;28;20210;-69
2021/10/07 09:00:38;;;;;;;8.95;6.45;;;14.20;99.90;;;;;;5057509;28;20268;-69
2021/10/07 09:03:24;;;;;;;8.82;5.80;;;14.20;99.90;;;;;;5057471;28;20205;-69
2021/10/07 09:06:08;;;;;;;9.23;6.70;;;14.40;99.90;;;;;;5057430;28;20209;-69
2021/10/07 09:08:43;;;;;;;8.85;7.00;;;14.60;99.90;;;;;;5057529;28;20291;-69
2021/10/07 09:11:10;;;;;;;7.10;6.13;;;14.70;99.90;;;;;;5057454;28;20235;-69
2021/10/07 09:13:37;;;;;;;9.45;6.80;;;14.80;99.90;;;;;;5057542;28;20299;-69
2021/10/07 09:16:04;;;;;;;9.35;6.53;;;14.90;99.90;;;;;;5057524;28;20225;-69
2021/10/07 09:18:32;;;;;;;7.93;6.43;;;14.90;99.90;;;;;;5057493;28;20205;-69
2021/10/07 09:21:00;;;;;;;9.40;6.68;;;15.00;99.90;;;;;;5057367;28;20566;-69
2021/10/07 09:23:31;;;;;;;9.52;6.13;;;15.10;99.90;;;;;;5057460;28;20209;-69
2021/10/07 09:26:04;;;;;;;8.90;6.50;;;15.10;99.90;;;;;;5057225;28;20232;-69
2021/10/07 09:28:49;;;;;;;6.78;5.97;;;15.10;99.90;;;;;;5057213;28;20643;-70
2021/10/07 09:31:17;;;;;;;8.70;6.50;;;15.20;99.90;;;;;;5057124;28;20229;-69
2021/10/07 09:33:47;;;;;;;12.02;6.45;;;15.00;99.90;;;;;;5057427;28;20304;-69
2021/10/07 09:36:16;;;;;;;12.40;6.82;;;14.90;99.90;;;;;;5057196;28;20715;-69
2021/10/07 09:38:44;;;;;;;8.65;6.07;;;15.00;99.90;;;;;;5057515;28;20205;-70
2021/10/07 09:41:15;;;;;;;9.98;6.88;;;15.00;99.90;;;;;;5057356;28;20206;-69
2021/10/07 09:43:44;;;;;;;8.32;6.00;;;15.10;99.90;;;;;;5057386;28;20673;-69
2021/10/07 09:46:11;;;;;;;7.10;5.75;;;15.00;99.90;;;;;;5057427;28;20320;-70
2021/10/07 09:48:43;;;;;;;9.10;5.70;;;15.10;99.90;;;;;;5057439;28;20636;-69
2021/10/07 09:51:17;;;;;;;10.15;5.57;;;15.10;99.90;;;;;;5056767;28;20226;-69
2021/10/07 09:53:46;;;;;;;9.95;6.60;;;15.00;99.90;;;;;;5057321;28;20205;-69
2021/10/07 09:56:26;;;;;;;9.00;5.82;;;15.10;99.90;;;;;;5057366;28;20227;-69
2021/10/07 09:58:55;;;;;;;9.65;6.20;;;15.20;99.90;;;;;;5056837;28;20295;-70
2021/10/07 10:01:22;;;;;;;9.00;6.75;;;15.30;99.90;;;;;;5057012;28;20284;-69
2021/10/07 10:03:49;;;;;;;11.90;6.53;;;15.40;99.90;;;;;;5057205;28;20684;-69
2021/10/07 10:06:18;;;;;;;8.63;5.55;;;15.40;99.90;;;;;;5056991;28;20225;-70
2021/10/07 10:08:44;;;;;;;11.02;6.28;;;15.30;99.90;;;;;;5056940;28;20214;-69
2021/10/07 10:11:12;;;;;;;6.93;5.47;;;15.40;99.90;;;;;;5056612;28;20233;-69
2021/10/07 10:13:39;;;;;;;9.80;6.45;;;15.50;99.90;;;;;;5057107;28;20206;-69
2021/10/07 10:16:07;;;;;;;8.75;5.75;;;15.30;99.90;;;;;;5056666;28;20230;-69
2021/10/07 10:18:34;;;;;;;8.30;5.25;;;15.20;99.90;;;;;;5056309;28;20297;-69
2021/10/07 10:21:04;;;;;;;7.10;5.03;;;15.20;99.90;;;;;;5056265;28;20373;-70
2021/10/07 10:23:37;;;;;;;6.93;5.10;;;15.20;99.90;;;;;;5056267;28;20213;-69
2021/10/07 10:26:10;;;;;;;7.18;5.32;;;15.10;99.90;;;;;;5056122;28;20344;-69
2021/10/07 10:28:53;;;;;;;6.63;4.45;;;15.20;99.90;;;;;;5056732;28;20570;-69
2021/10/07 10:31:31;;;;;;;6.03;4.10;;;15.10;99.90;;;;;;5056134;28;20316;-69
2021/10/07 10:34:05;;;;;;;5.30;4.50;;;15.00;99.90;;;;;;5056227;28;20205;-69
2021/10/07 10:36:34;;;;;;;6.93;4.47;;;15.00;99.90;;;;;;5056775;28;20632;-69
2021/10/07 10:39:09;;;;;;;5.80;4.40;;;15.00;99.90;;;;;;5056003;28;20218;-69
2021/10/07 10:41:53;;;;;;;6.15;4.20;;;15.10;99.90;;;;;;5056283;28;20197;-69
2021/10/07 10:44:37;;;;;;;5.40;4.15;;;15.20;99.90;;;;;;5056248;28;20216;-70
2021/10/07 10:47:16;;;;;;;6.93;4.70;;;15.30;99.90;;;;;;5056515;28;20232;-69
2021/10/07 10:50:02;;;;;;;6.25;4.43;;;15.40;99.90;;;;;;5056237;28;20209;-69
2021/10/07 10:52:30;;;;;;;5.68;3.85;;;15.40;99.90;;;;;;5056129;28;20687;-70
2021/10/07 10:55:01;;;;;;;6.68;4.25;;;15.60;99.90;;;;;;5056198;28;20206;-69
2021/10/07 10:57:30;;;;;;;5.40;4.90;;;15.70;99.90;;;;;;5056110;28;20700;-69
2021/10/07 11:00:07;;;;;;;6.00;4.28;;;15.80;99.90;;;;;;5056854;28;20207;-69
2021/10/07 11:02:34;;;;;;;4.63;4.20;;;16.10;99.90;;;;;;5056118;28;20565;-69
2021/10/07 11:05:14;;;;;;;7.13;4.80;;;16.30;99.90;;;;;;5056289;28;20203;-69
2021/10/07 11:07:41;;;;;;;6.53;4.65;;;16.10;99.90;;;;;;5055769;28;20317;-69
2021/10/07 11:10:16;;;;;;;5.78;4.35;;;16.00;99.90;;;;;;5055955;28;20294;-69
2021/10/07 11:12:49;;;;;;;5.18;3.83;;;15.90;99.90;;;;;;5055497;28;20197;-69
2021/10/07 11:15:17;;;;;;;4.75;3.85;;;15.80;99.90;;;;;;5055824;28;20217;-69
2021/10/07 11:17:46;;;;;;;8.32;4.50;;;15.70;99.90;;;;;;5055137;28;20592;-69
2021/10/07 11:20:15;;;;;;;6.63;3.85;;;15.60;99.90;;;;;;5055773;28;20206;-69
2021/10/07 11:23:07;;;;;;;5.38;3.95;;;15.50;99.90;;;;;;5054822;28;20213;-69
2021/10/07 11:25:37;;;;;;;8.70;4.55;;;15.50;99.90;;;;;;5055649;28;20304;-69
2021/10/07 11:28:05;;;;;;;5.85;4.40;;;15.60;99.90;;;;;;5055608;28;20211;-69
2021/10/07 11:30:34;;;;;;;4.50;4.05;;;15.50;99.90;;;;;;5055412;28;20301;-69
2021/10/07 11:33:02;;;;;;;4.05;3.30;;;15.40;99.90;;;;;;5055031;28;20206;-69
2021/10/07 11:35:30;;;;;;;4.63;3.65;;;15.50;99.90;;;;;;5055231;28;20213;-69
2021/10/07 11:38:00;;;;;;;4.05;3.65;;;15.60;99.90;;;;;;5054794;28;20320;-69
2021/10/07 11:40:31;;;;;;;4.65;4.15;;;15.60;99.90;;;;;;5056114;28;20210;-69
2021/10/07 11:43:02;;;;;;;5.60;4.43;;;15.60;99.90;;;;;;5055500;28;20256;-69
2021/10/07 11:45:30;;;;;;;5.05;4.07;;;15.60;99.90;;;;;;5055495;28;20206;-69
2021/10/07 11:47:59;;;;;;;5.47;4.43;;;15.70;99.90;;;;;;5055603;28;20225;-69
2021/10/07 11:50:26;;;;;;;5.40;4.57;;;15.70;99.90;;;;;;5054787;28;20669;-69
2021/10/07 11:52:56;;;;;;;5.93;4.30;;;15.70;99.90;;;;;;5054217;28;20573;-69
2021/10/07 11:55:24;;;;;;;4.35;3.92;;;15.80;99.90;;;;;;5054279;28;20243;-69
2021/10/07 11:57:53;;;;;;;9.95;7.50;;;15.90;99.90;;;;;;5054430;28;20222;-69
2021/10/07 12:00:42;;;;;;;6.88;5.20;;;16.00;99.90;;;;;;5054056;28;20214;-69
2021/10/07 12:03:17;;;;;;;5.25;4.47;;;16.20;99.90;;;;;;5054183;28;20210;-69
2021/10/07 12:05:46;;;;;;;5.65;4.28;;;16.30;99.90;;;;;;5054491;28;20623;-69
2021/10/07 12:08:16;;;;;;;5.35;4.13;;;16.30;99.90;;;;;;5055065;28;20239;-69
2021/10/07 12:10:46;;;;;;;5.50;4.03;;;16.40;99.90;;;;;;5054720;28;20204;-69
2021/10/07 12:13:15;;;;;;;4.90;4.00;;;16.50;99.90;;;;;;5054749;28;20297;-69
2021/10/07 12:15:47;;;;;;;5.60;3.67;;;16.50;99.90;;;;;;5054929;28;20297;-70
2021/10/07 12:18:15;;;;;;;3.60;3.30;;;16.50;99.90;;;;;;5055039;28;20202;-69
2021/10/07 12:20:59;;;;;;;3.70;3.40;;;16.60;99.90;;;;;;5054498;28;20214;-69
2021/10/07 12:23:26;;;;;;;3.40;3.10;;;16.70;99.90;;;;;;5054158;28;20302;-69
2021/10/07 12:25:58;;;;;;;4.50;3.42;;;16.60;99.90;;;;;;5053611;28;20310;-69
2021/10/07 12:28:25;;;;;;;4.03;3.60;;;16.60;99.90;;;;;;5054111;28;20293;-69
2021/10/07 12:30:57;;;;;;;4.03;3.60;;;16.60;99.90;;;;;;5054561;28;20718;-69
2021/10/07 12:33:27;;;;;;;4.15;3.75;;;16.50;99.90;;;;;;5058406;28;20225;-69
2021/10/07 12:35:56;;;;;;;4.40;4.00;;;16.40;99.90;;;;;;5060778;28;20203;-69
2021/10/07 12:38:23;;;;;;;4.72;3.95;;;16.50;99.90;;;;;;5061282;28;20672;-69
2021/10/07 12:40:58;;;;;;;5.32;4.13;;;16.60;99.90;;;;;;5061373;28;20206;-69
2021/10/07 12:43:25;;;;;;;5.15;3.90;;;16.40;99.90;;;;;;5061496;28;20205;-69
2021/10/07 12:46:18;;;;;;;4.65;4.15;;;16.30;99.90;;;;;;5061015;28;20206;-69
2021/10/07 12:48:50;;;;;;;4.40;3.95;;;16.20;99.90;;;;;;5061416;28;20194;-69
2021/10/07 12:51:18;;;;;;;4.53;3.78;;;16.10;99.90;;;;;;5061105;28;20225;-69
2021/10/07 12:53:46;;;;;;;7.22;4.60;;;16.10;99.90;;;;;;5061257;28;20205;-69